Highland Beach, Florida
Current Conditions -  °F | °C
As of 10:55 AM on Wednesday 26 Nov 2014 (Local Time) from KBCT Reporting Station
Broken Clouds Broken Clouds  
Wind Chill: 66°   Ceiling: 3000
Heat Index: 66°   Visibility: 10mi
Dew Point: 64°   Wind: 12mph
Humidity: 94%   Direction: 320°NW
Pressure: 30.09"   Gusts: 23mph
Location:  26.4095°N, 80.0961°W
Report Text: KBCT 261555Z 32010G20KT 10SM SCT008 SCT016 BKN030 19/18 A3009
Loading
Personal Weather Stations






























Interactive Weather Map New forecast layout! Learn more

10-Day Weather Forecast

Advertisements
Track Severe Weather on mobile